Time;durP1;ratioP1;P1;durP2;ratioP2;P2;SDS_P1;SDS_P2;PMS_P1;PMS_P2;Temp;Humidity;BMP_temperature;BMP_pressure;BME280_temperature;BME280_humidity;BME280_pressure;Samples;Min_cycle;Max_cycle;Signal;HPM_P1;HPM_P2
2022/07/31 00:00:35;;;;;;;5.80;3.98;;;;;;;;;;1748328;81;21037;-73
2022/07/31 00:03:01;;;;;;;5.53;3.70;;;;;;;;;;1746524;81;21029;-73
2022/07/31 00:05:28;;;;;;;6.58;4.00;;;;;;;;;;1746710;80;22399;-73
2022/07/31 00:07:54;;;;;;;5.00;4.42;;;;;;;;;;1749586;80;21025;-73
2022/07/31 00:10:20;;;;;;;5.30;3.90;;;;;;;;;;1748741;80;21062;-73
2022/07/31 00:12:47;;;;;;;5.65;3.98;;;;;;;;;;1747901;80;21029;-73
2022/07/31 00:15:14;;;;;;;6.47;4.05;;;;;;;;;;1749753;81;21580;-73
2022/07/31 00:17:40;;;;;;;5.17;3.45;;;;;;;;;;1747275;81;21101;-73
2022/07/31 00:20:07;;;;;;;5.03;3.45;;;;;;;;;;1748435;80;21074;-73
2022/07/31 00:22:34;;;;;;;7.72;4.03;;;;;;;;;;1746604;81;21049;-73
2022/07/31 00:25:00;;;;;;;5.60;4.28;;;;;;;;;;1749053;80;21013;-72
2022/07/31 00:27:26;;;;;;;5.12;3.52;;;;;;;;;;1747437;80;21076;-73
2022/07/31 00:29:53;;;;;;;4.40;3.58;;;;;;;;;;1745616;81;21104;-73
2022/07/31 00:32:20;;;;;;;4.83;3.40;;;;;;;;;;1747651;80;21065;-73
2022/07/31 00:34:46;;;;;;;5.17;3.50;;;;;;;;;;1744284;81;21541;-73
2022/07/31 00:37:12;;;;;;;4.83;3.80;;;;;;;;;;1750917;81;21026;-73
2022/07/31 00:39:39;;;;;;;5.58;3.50;;;;;;;;;;1747857;81;22281;-73
2022/07/31 00:42:06;;;;;;;6.00;3.95;;;;;;;;;;1750388;80;21052;-73
2022/07/31 00:44:32;;;;;;;6.20;3.60;;;;;;;;;;1733840;81;21051;-73
2022/07/31 00:46:59;;;;;;;5.08;3.58;;;;;;;;;;1747257;81;21115;-73
2022/07/31 00:49:25;;;;;;;6.08;4.08;;;;;;;;;;1746274;81;21069;-73
2022/07/31 00:51:50;;;;;;;5.80;3.98;;;;;;;;;;1743666;81;21698;-73
2022/07/31 00:54:17;;;;;;;5.22;3.90;;;;;;;;;;1745444;81;21053;-73
2022/07/31 00:56:43;;;;;;;8.80;3.67;;;;;;;;;;1745203;81;21020;-73
2022/07/31 00:59:09;;;;;;;5.08;3.80;;;;;;;;;;1744752;81;21017;-73
2022/07/31 01:04:25;;;;;;;6.70;3.83;;;;;;;;;;1751735;79;74033;-75
2022/07/31 01:06:51;;;;;;;4.83;3.40;;;;;;;;;;1763205;81;21018;-75
2022/07/31 01:09:18;;;;;;;4.95;3.58;;;;;;;;;;1759795;81;21567;-75
2022/07/31 01:11:46;;;;;;;5.65;3.70;;;;;;;;;;1762329;81;21176;-75
2022/07/31 01:14:12;;;;;;;6.42;3.87;;;;;;;;;;1762528;81;21093;-74
2022/07/31 01:16:39;;;;;;;4.80;3.40;;;;;;;;;;1763215;81;21054;-75
2022/07/31 01:19:24;;;;;;;4.47;3.12;;;;;;;;;;1764280;81;21002;-75
2022/07/31 01:21:52;;;;;;;6.42;3.77;;;;;;;;;;1761394;81;21037;-74
2022/07/31 01:24:39;;;;;;;6.10;3.60;;;;;;;;;;1762769;81;21036;-75
2022/07/31 01:27:10;;;;;;;4.55;3.47;;;;;;;;;;1761728;81;21022;-75
2022/07/31 01:29:38;;;;;;;6.12;3.72;;;;;;;;;;1736329;81;21102;-75
2022/07/31 01:32:06;;;;;;;4.80;3.65;;;;;;;;;;1760055;81;21049;-75
2022/07/31 01:34:43;;;;;;;5.03;3.52;;;;;;;;;;1765378;81;21198;-76
2022/07/31 01:37:28;;;;;;;4.08;3.12;;;;;;;;;;1761958;81;21001;-75
2022/07/31 01:40:05;;;;;;;4.37;3.47;;;;;;;;;;1762906;81;21029;-76
2022/07/31 01:42:33;;;;;;;6.03;3.45;;;;;;;;;;1751704;81;21089;-75
2022/07/31 01:44:59;;;;;;;4.83;3.72;;;;;;;;;;1735273;81;21048;-75
2022/07/31 01:47:26;;;;;;;4.85;3.70;;;;;;;;;;1764001;81;21562;-74
2022/07/31 01:49:53;;;;;;;5.78;3.58;;;;;;;;;;1764953;81;21005;-74
2022/07/31 01:52:21;;;;;;;5.83;3.37;;;;;;;;;;1763985;81;21030;-74
2022/07/31 01:54:47;;;;;;;4.87;3.00;;;;;;;;;;1760117;81;22189;-75
2022/07/31 01:57:14;;;;;;;5.05;2.95;;;;;;;;;;1763064;81;21533;-74
2022/07/31 01:59:42;;;;;;;5.10;3.40;;;;;;;;;;1759963;81;21524;-75
2022/07/31 02:02:11;;;;;;;6.22;4.00;;;;;;;;;;1763353;81;21046;-75
2022/07/31 02:04:37;;;;;;;4.28;3.02;;;;;;;;;;1752752;81;21351;-74
2022/07/31 02:07:04;;;;;;;4.37;3.35;;;;;;;;;;1758175;81;21045;-74
2022/07/31 02:09:32;;;;;;;3.92;2.92;;;;;;;;;;1754565;81;21052;-74
2022/07/31 02:11:59;;;;;;;3.40;2.90;;;;;;;;;;1756644;81;21081;-74
2022/07/31 02:14:26;;;;;;;4.87;3.00;;;;;;;;;;1721005;82;20991;-74
2022/07/31 02:16:52;;;;;;;6.30;2.87;;;;;;;;;;1736210;82;21065;-74
2022/07/31 02:19:20;;;;;;;6.50;2.80;;;;;;;;;;1686429;84;21036;-75
2022/07/31 02:21:46;;;;;;;5.15;3.33;;;;;;;;;;1717525;83;21117;-76
2022/07/31 02:24:12;;;;;;;5.53;2.80;;;;;;;;;;1704415;83;21074;-75
2022/07/31 02:26:41;;;;;;;3.37;3.05;;;;;;;;;;1710431;83;21546;-76
2022/07/31 02:29:07;;;;;;;5.33;3.08;;;;;;;;;;1706202;83;21082;-75
2022/07/31 02:31:34;;;;;;;3.85;2.70;;;;;;;;;;1704139;83;21043;-76
2022/07/31 02:34:00;;;;;;;3.80;3.10;;;;;;;;;;1706922;83;21058;-76
2022/07/31 02:36:27;;;;;;;4.12;3.10;;;;;;;;;;1707521;83;21043;-76
2022/07/31 02:38:53;;;;;;;3.95;2.80;;;;;;;;;;1708144;83;21055;-76
2022/07/31 02:41:20;;;;;;;4.70;3.40;;;;;;;;;;1708392;83;21053;-76
2022/07/31 02:43:46;;;;;;;3.75;2.83;;;;;;;;;;1707162;83;21553;-76
2022/07/31 02:46:14;;;;;;;6.03;2.95;;;;;;;;;;1708426;83;21078;-77
2022/07/31 02:48:40;;;;;;;3.40;2.80;;;;;;;;;;1707330;83;21048;-76
2022/07/31 02:51:08;;;;;;;4.50;2.98;;;;;;;;;;1705309;83;21057;-76
2022/07/31 02:53:36;;;;;;;5.92;2.90;;;;;;;;;;1708356;83;21075;-75
2022/07/31 02:56:04;;;;;;;6.60;3.02;;;;;;;;;;1709001;83;21078;-75
2022/07/31 02:58:31;;;;;;;6.25;3.02;;;;;;;;;;1690827;83;21243;-75
2022/07/31 03:00:58;;;;;;;3.85;2.70;;;;;;;;;;1708598;83;21072;-75
2022/07/31 03:03:24;;;;;;;3.65;2.80;;;;;;;;;;1706717;82;21106;-74
2022/07/31 03:05:51;;;;;;;4.85;2.95;;;;;;;;;;1709115;83;21070;-75
2022/07/31 03:08:17;;;;;;;5.08;3.00;;;;;;;;;;1706313;83;21072;-75
2022/07/31 03:10:46;;;;;;;4.85;2.87;;;;;;;;;;1704931;83;21077;-75
2022/07/31 03:13:12;;;;;;;3.62;3.05;;;;;;;;;;1710368;83;21124;-75
2022/07/31 03:15:39;;;;;;;3.37;2.80;;;;;;;;;;1706615;83;22167;-75
2022/07/31 03:18:05;;;;;;;4.33;2.90;;;;;;;;;;1707425;83;21045;-74
2022/07/31 03:20:33;;;;;;;6.12;3.20;;;;;;;;;;1706509;83;21603;-75
2022/07/31 03:23:00;;;;;;;5.90;3.00;;;;;;;;;;1709090;83;21030;-75
2022/07/31 03:25:26;;;;;;;3.22;2.70;;;;;;;;;;1708763;83;21050;-75
2022/07/31 03:27:52;;;;;;;3.92;2.95;;;;;;;;;;1711719;83;21044;-75
2022/07/31 03:30:23;;;;;;;4.33;3.02;;;;;;;;;;1707110;83;21151;-75
2022/07/31 03:32:46;;;;;;;5.55;3.22;;;;;;;;;;1708335;83;21060;-75
2022/07/31 03:35:13;;;;;;;5.95;3.02;;;;;;;;;;1706428;83;21025;-74
2022/07/31 03:37:39;;;;;;;3.60;2.90;;;;;;;;;;1708338;83;21056;-76
2022/07/31 03:40:07;;;;;;;4.75;2.90;;;;;;;;;;1706124;83;22294;-75
2022/07/31 03:42:33;;;;;;;4.67;2.92;;;;;;;;;;1704648;83;21010;-76
2022/07/31 03:44:59;;;;;;;3.60;2.60;;;;;;;;;;1710120;83;21089;-77
2022/07/31 03:47:25;;;;;;;4.28;3.02;;;;;;;;;;1686789;83;22197;-76
2022/07/31 03:49:51;;;;;;;3.10;2.40;;;;;;;;;;1708514;83;21043;-76
2022/07/31 03:52:17;;;;;;;6.05;2.90;;;;;;;;;;1708301;83;21112;-76
2022/07/31 03:54:44;;;;;;;4.40;2.67;;;;;;;;;;1705465;83;21581;-76
2022/07/31 03:57:15;;;;;;;3.33;2.70;;;;;;;;;;1705095;83;21086;-75
2022/07/31 03:59:42;;;;;;;3.70;2.33;;;;;;;;;;1708111;83;21092;-75
2022/07/31 04:03:48;;;;;;;4.72;2.40;;;;;;;;;;1790159;79;22795;-68
2022/07/31 04:06:18;;;;;;;8.35;2.77;;;;;;;;;;1749171;81;21050;-68
2022/07/31 04:08:45;;;;;;;4.58;2.70;;;;;;;;;;1753316;81;21045;-69
2022/07/31 04:11:12;;;;;;;3.80;2.80;;;;;;;;;;1751863;80;21197;-69
2022/07/31 04:13:38;;;;;;;4.95;3.00;;;;;;;;;;1751634;81;21205;-69
2022/07/31 04:16:04;;;;;;;4.03;2.45;;;;;;;;;;1752240;81;21605;-69
2022/07/31 04:18:31;;;;;;;3.85;3.02;;;;;;;;;;1748967;81;21061;-69
2022/07/31 04:20:58;;;;;;;13.30;2.95;;;;;;;;;;1754471;80;21083;-69
2022/07/31 04:23:25;;;;;;;4.28;2.55;;;;;;;;;;1749289;81;21511;-69
2022/07/31 04:25:53;;;;;;;3.75;2.45;;;;;;;;;;1750700;81;21036;-69
2022/07/31 04:28:27;;;;;;;4.30;2.62;;;;;;;;;;1749217;81;21558;-69
2022/07/31 04:30:54;;;;;;;3.40;2.30;;;;;;;;;;1760700;80;21060;-68
2022/07/31 04:33:21;;;;;;;3.62;2.70;;;;;;;;;;1761120;81;21115;-69
2022/07/31 04:35:47;;;;;;;3.75;2.72;;;;;;;;;;1760230;81;21013;-68
2022/07/31 04:38:15;;;;;;;3.02;2.52;;;;;;;;;;1761386;81;21052;-69
2022/07/31 04:40:42;;;;;;;2.62;2.42;;;;;;;;;;1740169;80;21528;-68
2022/07/31 04:43:08;;;;;;;3.40;2.70;;;;;;;;;;1792579;80;21109;-68
2022/07/31 04:45:34;;;;;;;4.40;2.50;;;;;;;;;;1786467;80;21079;-68
2022/07/31 04:48:02;;;;;;;4.83;2.60;;;;;;;;;;1757030;81;21572;-68
2022/07/31 04:50:29;;;;;;;6.33;2.52;;;;;;;;;;1751065;81;21119;-69
2022/07/31 04:52:59;;;;;;;5.97;2.50;;;;;;;;;;1756645;81;21005;-67
2022/07/31 04:55:27;;;;;;;3.98;2.37;;;;;;;;;;1783671;80;20991;-69
2022/07/31 04:57:53;;;;;;;4.58;2.47;;;;;;;;;;1770609;80;21087;-68
2022/07/31 05:00:19;;;;;;;4.33;2.80;;;;;;;;;;1758963;81;21011;-68
2022/07/31 05:02:45;;;;;;;4.42;2.58;;;;;;;;;;1761519;81;21048;-68
2022/07/31 05:05:12;;;;;;;3.35;2.70;;;;;;;;;;1761297;80;21922;-68
2022/07/31 05:07:40;;;;;;;3.05;2.50;;;;;;;;;;1757767;81;21113;-70
2022/07/31 05:11:21;;;;;;;4.08;2.62;;;;;;;;;;1756161;81;21001;-68
2022/07/31 05:12:39;;;;;;;3.55;2.22;;;;;;;;;;1756862;80;21024;-68
2022/07/31 05:15:06;;;;;;;5.85;2.60;;;;;;;;;;1761658;80;21048;-68
2022/07/31 05:17:32;;;;;;;4.40;2.45;;;;;;;;;;1784002;80;21020;-68
2022/07/31 05:20:04;;;;;;;4.30;2.65;;;;;;;;;;1763076;80;21056;-68
2022/07/31 05:22:35;;;;;;;9.33;2.75;;;;;;;;;;1785812;80;21007;-68
2022/07/31 05:25:06;;;;;;;3.15;2.20;;;;;;;;;;1754591;80;21083;-68
2022/07/31 05:27:33;;;;;;;6.42;2.50;;;;;;;;;;1771652;80;21048;-68
2022/07/31 05:29:59;;;;;;;4.42;2.80;;;;;;;;;;1761134;81;21044;-68
2022/07/31 05:32:25;;;;;;;3.25;2.40;;;;;;;;;;1773952;80;21004;-68
2022/07/31 05:34:51;;;;;;;2.87;2.37;;;;;;;;;;1758539;80;20996;-68
2022/07/31 05:37:17;;;;;;;3.30;2.30;;;;;;;;;;1760683;80;20973;-68
2022/07/31 05:39:43;;;;;;;3.27;2.50;;;;;;;;;;1757917;81;21569;-68
2022/07/31 05:42:28;;;;;;;2.92;2.20;;;;;;;;;;1762834;80;21547;-68
2022/07/31 05:44:59;;;;;;;2.80;2.20;;;;;;;;;;1779423;80;21032;-66
2022/07/31 05:47:25;;;;;;;2.50;2.22;;;;;;;;;;1790411;80;21050;-68
2022/07/31 05:49:52;;;;;;;5.20;2.75;;;;;;;;;;1774811;80;21032;-68
2022/07/31 05:52:18;;;;;;;3.10;2.30;;;;;;;;;;1763832;80;21100;-67
2022/07/31 05:54:47;;;;;;;3.95;2.30;;;;;;;;;;1759171;81;21021;-68
2022/07/31 05:57:31;;;;;;;4.25;2.12;;;;;;;;;;1757268;80;21019;-68
2022/07/31 05:59:57;;;;;;;5.80;2.40;;;;;;;;;;1756387;80;21036;-70
2022/07/31 06:02:24;;;;;;;4.83;2.83;;;;;;;;;;1756046;80;21118;-71
2022/07/31 06:04:55;;;;;;;5.75;2.90;;;;;;;;;;1752627;80;21613;-68
2022/07/31 06:07:21;;;;;;;3.65;2.42;;;;;;;;;;1758108;80;21060;-69
2022/07/31 06:09:48;;;;;;;22.22;4.25;;;;;;;;;;1760281;81;21068;-70
2022/07/31 06:12:15;;;;;;;3.40;2.50;;;;;;;;;;1761551;80;21021;-70
2022/07/31 06:14:43;;;;;;;4.40;2.90;;;;;;;;;;1757899;80;21391;-71
2022/07/31 06:17:11;;;;;;;7.80;2.83;;;;;;;;;;1754935;80;21076;-70
2022/07/31 06:19:37;;;;;;;6.37;2.50;;;;;;;;;;1758854;80;21083;-70
2022/07/31 06:22:03;;;;;;;3.87;2.70;;;;;;;;;;1757126;80;21030;-69
2022/07/31 06:24:31;;;;;;;4.67;2.70;;;;;;;;;;1737031;81;21082;-70
2022/07/31 06:26:58;;;;;;;4.78;2.75;;;;;;;;;;1755807;81;21073;-70
2022/07/31 06:29:24;;;;;;;3.58;2.83;;;;;;;;;;1735675;81;21083;-71
2022/07/31 06:31:50;;;;;;;6.22;2.60;;;;;;;;;;1756643;81;21032;-69
2022/07/31 06:34:16;;;;;;;6.17;2.70;;;;;;;;;;1757540;81;20987;-71
2022/07/31 06:36:42;;;;;;;4.67;2.67;;;;;;;;;;1756768;80;21263;-70
2022/07/31 06:39:13;;;;;;;5.67;2.70;;;;;;;;;;1756338;81;21092;-71
2022/07/31 06:41:57;;;;;;;5.15;2.40;;;;;;;;;;1755726;81;21043;-69
2022/07/31 06:44:31;;;;;;;7.55;2.77;;;;;;;;;;1749156;81;21498;-69
2022/07/31 06:47:16;;;;;;;4.00;2.67;;;;;;;;;;1749986;81;22104;-69
2022/07/31 06:49:52;;;;;;;8.25;3.00;;;;;;;;;;1748058;82;21738;-69
2022/07/31 06:52:19;;;;;;;4.75;2.85;;;;;;;;;;1756456;80;21025;-69
2022/07/31 06:54:46;;;;;;;5.00;2.60;;;;;;;;;;1759368;80;21060;-69
2022/07/31 06:57:13;;;;;;;5.33;2.58;;;;;;;;;;1759975;80;21165;-70
2022/07/31 06:59:39;;;;;;;4.12;2.47;;;;;;;;;;1763059;80;21513;-69
2022/07/31 07:02:06;;;;;;;4.90;2.80;;;;;;;;;;1758942;80;21013;-69
2022/07/31 07:04:33;;;;;;;6.62;4.85;;;;;;;;;;1738465;81;21058;-71
2022/07/31 07:06:59;;;;;;;7.90;5.33;;;;;;;;;;1738991;80;21958;-70
2022/07/31 07:09:25;;;;;;;3.52;2.60;;;;;;;;;;1738962;80;21072;-69
2022/07/31 07:11:51;;;;;;;9.35;2.92;;;;;;;;;;1740637;80;20988;-69
2022/07/31 07:14:17;;;;;;;6.80;2.92;;;;;;;;;;1737949;80;21575;-70
2022/07/31 07:16:43;;;;;;;3.42;2.50;;;;;;;;;;1741871;82;21068;-69
2022/07/31 07:19:09;;;;;;;6.08;2.83;;;;;;;;;;1722259;82;20976;-69
2022/07/31 07:21:35;;;;;;;5.62;2.70;;;;;;;;;;1747648;82;21041;-69
2022/07/31 07:24:02;;;;;;;5.12;2.58;;;;;;;;;;1743795;80;21005;-70
2022/07/31 07:26:30;;;;;;;3.70;2.20;;;;;;;;;;1741700;80;21061;-69
2022/07/31 07:28:56;;;;;;;4.70;2.40;;;;;;;;;;1745297;80;21603;-70
2022/07/31 07:31:23;;;;;;;2.95;2.47;;;;;;;;;;1746142;80;21436;-71
2022/07/31 07:33:50;;;;;;;3.33;2.22;;;;;;;;;;1748062;80;21041;-71
2022/07/31 07:36:22;;;;;;;4.07;2.40;;;;;;;;;;1746577;81;21028;-71
2022/07/31 07:38:48;;;;;;;7.45;2.70;;;;;;;;;;1738378;82;21610;-70
2022/07/31 07:41:15;;;;;;;3.15;2.20;;;;;;;;;;1739746;81;21065;-70
2022/07/31 07:43:41;;;;;;;4.53;2.40;;;;;;;;;;1740432;80;22560;-70
2022/07/31 07:46:08;;;;;;;10.93;2.85;;;;;;;;;;1739497;80;21088;-69
2022/07/31 07:48:36;;;;;;;4.08;2.20;;;;;;;;;;1745554;80;21540;-69
2022/07/31 07:51:11;;;;;;;5.33;2.58;;;;;;;;;;1742053;80;21029;-69
2022/07/31 07:53:39;;;;;;;7.30;2.75;;;;;;;;;;1736503;82;21474;-68
2022/07/31 07:56:10;;;;;;;5.00;2.52;;;;;;;;;;1738911;81;21053;-69
2022/07/31 07:58:54;;;;;;;4.95;2.40;;;;;;;;;;1759941;81;21746;-69
2022/07/31 08:01:39;;;;;;;6.35;2.45;;;;;;;;;;1746644;80;21026;-69
2022/07/31 08:04:06;;;;;;;5.87;2.42;;;;;;;;;;1754271;81;21138;-69
2022/07/31 08:06:33;;;;;;;2.67;2.33;;;;;;;;;;1755543;81;21515;-68
2022/07/31 08:08:59;;;;;;;8.73;2.80;;;;;;;;;;1754755;81;21576;-71
2022/07/31 08:11:39;;;;;;;3.47;2.58;;;;;;;;;;1697611;80;21576;-69
2022/07/31 08:14:07;;;;;;;4.33;2.58;;;;;;;;;;1681699;85;21052;-66
2022/07/31 08:16:38;;;;;;;3.92;2.60;;;;;;;;;;1707683;83;21065;-68
2022/07/31 08:19:05;;;;;;;5.67;2.10;;;;;;;;;;1693922;85;21040;-68
2022/07/31 08:21:33;;;;;;;5.78;2.30;;;;;;;;;;1724713;83;21035;-67
2022/07/31 08:23:59;;;;;;;6.30;2.22;;;;;;;;;;1724697;83;21037;-66
2022/07/31 08:26:25;;;;;;;9.95;2.33;;;;;;;;;;1725713;82;20962;-68
2022/07/31 08:28:51;;;;;;;6.65;2.30;;;;;;;;;;1719770;83;21577;-67
2022/07/31 08:31:19;;;;;;;3.92;2.35;;;;;;;;;;1725232;82;21045;-69
2022/07/31 08:33:47;;;;;;;4.70;2.40;;;;;;;;;;1723107;83;21036;-68
2022/07/31 08:36:13;;;;;;;2.80;2.12;;;;;;;;;;1723593;83;21486;-68
2022/07/31 08:38:39;;;;;;;3.67;2.10;;;;;;;;;;1693239;83;20996;-68
2022/07/31 08:41:24;;;;;;;3.67;2.20;;;;;;;;;;1713375;83;21025;-68
2022/07/31 08:43:50;;;;;;;5.65;1.95;;;;;;;;;;1720391;83;21066;-67
2022/07/31 08:46:18;;;;;;;18.25;3.70;;;;;;;;;;1718360;82;21064;-68
2022/07/31 08:48:45;;;;;;;6.80;2.12;;;;;;;;;;1719394;82;21080;-69
2022/07/31 08:51:12;;;;;;;7.53;2.20;;;;;;;;;;1719855;82;21049;-67
2022/07/31 08:53:56;;;;;;;15.08;2.92;;;;;;;;;;1723328;82;21037;-68
2022/07/31 08:56:24;;;;;;;13.58;2.50;;;;;;;;;;1722872;82;21635;-67
2022/07/31 08:58:51;;;;;;;2.60;2.00;;;;;;;;;;1725043;83;21112;-67
2022/07/31 09:01:19;;;;;;;23.77;3.10;;;;;;;;;;1698550;83;21076;-67
2022/07/31 09:03:46;;;;;;;4.10;2.20;;;;;;;;;;1724171;83;21631;-66
2022/07/31 09:06:14;;;;;;;3.92;1.95;;;;;;;;;;1717975;83;21021;-67
2022/07/31 09:08:41;;;;;;;4.10;2.10;;;;;;;;;;1720905;83;21068;-66
2022/07/31 09:11:08;;;;;;;6.20;2.47;;;;;;;;;;1724635;82;21096;-68
2022/07/31 09:13:41;;;;;;;27.93;5.08;;;;;;;;;;1720367;83;21116;-68
2022/07/31 09:16:09;;;;;;;7.58;3.50;;;;;;;;;;1690385;83;21672;-69
2022/07/31 09:18:36;;;;;;;3.92;2.33;;;;;;;;;;1714120;83;21054;-68
2022/07/31 09:21:05;;;;;;;3.85;2.00;;;;;;;;;;1711183;83;21076;-69
2022/07/31 09:23:32;;;;;;;2.98;1.95;;;;;;;;;;1720035;82;21045;-69
2022/07/31 09:25:59;;;;;;;4.70;2.20;;;;;;;;;;1721072;82;21076;-68
2022/07/31 09:28:38;;;;;;;7.37;4.17;;;;;;;;;;1720189;82;21068;-68
2022/07/31 09:31:05;;;;;;;3.15;1.90;;;;;;;;;;1722545;82;20988;-67
2022/07/31 09:33:50;;;;;;;2.92;1.98;;;;;;;;;;1722026;82;21588;-67
2022/07/31 09:36:20;;;;;;;2.83;2.37;;;;;;;;;;1664532;83;21030;-68
2022/07/31 09:38:46;;;;;;;5.05;2.17;;;;;;;;;;1722528;82;21061;-69
2022/07/31 09:41:32;;;;;;;4.53;2.30;;;;;;;;;;1721232;82;21045;-66
2022/07/31 09:44:04;;;;;;;9.00;2.08;;;;;;;;;;1695921;84;21575;-67
2022/07/31 09:46:39;;;;;;;3.62;2.05;;;;;;;;;;1682089;82;21025;-67
2022/07/31 09:49:06;;;;;;;2.72;1.90;;;;;;;;;;1722113;82;21053;-68
2022/07/31 09:51:38;;;;;;;3.45;1.80;;;;;;;;;;1725376;82;21063;-67
2022/07/31 09:54:05;;;;;;;6.05;1.72;;;;;;;;;;1719789;82;21080;-67
2022/07/31 09:56:49;;;;;;;4.20;1.87;;;;;;;;;;1692894;82;21070;-66
2022/07/31 09:59:16;;;;;;;3.60;2.20;;;;;;;;;;1719634;82;21071;-67
2022/07/31 10:01:42;;;;;;;3.65;2.30;;;;;;;;;;1714504;82;22323;-68
2022/07/31 10:04:09;;;;;;;7.10;2.55;;;;;;;;;;1712853;82;21046;-67
2022/07/31 10:06:35;;;;;;;9.05;2.40;;;;;;;;;;1700820;83;21104;-67
2022/07/31 10:09:03;;;;;;;3.12;2.35;;;;;;;;;;1685055;85;21094;-68
2022/07/31 10:11:34;;;;;;;2.65;2.05;;;;;;;;;;1678659;84;20999;-68
2022/07/31 10:14:12;;;;;;;3.85;2.30;;;;;;;;;;1745242;81;22220;-67
2022/07/31 10:16:38;;;;;;;7.22;2.47;;;;;;;;;;1731455;80;21013;-66
2022/07/31 10:19:16;;;;;;;5.17;2.20;;;;;;;;;;1742290;80;20974;-67
2022/07/31 10:21:56;;;;;;;4.03;2.00;;;;;;;;;;1714813;80;20982;-68
2022/07/31 10:24:26;;;;;;;4.40;2.17;;;;;;;;;;1743903;81;21049;-69
2022/07/31 10:26:54;;;;;;;2.75;2.35;;;;;;;;;;1740435;81;21641;-69
2022/07/31 10:29:21;;;;;;;4.00;3.10;;;;;;;;;;1739654;81;21000;-70
2022/07/31 10:31:47;;;;;;;3.60;2.30;;;;;;;;;;1738957;81;21070;-68
2022/07/31 10:34:14;;;;;;;5.25;2.50;;;;;;;;;;1745543;80;21053;-67
2022/07/31 10:37:01;;;;;;;5.42;2.08;;;;;;;;;;1745758;80;21041;-69
2022/07/31 10:39:36;;;;;;;5.58;1.90;;;;;;;;;;1747761;81;21526;-68
2022/07/31 10:42:09;;;;;;;3.20;2.27;;;;;;;;;;1740116;81;21061;-68
2022/07/31 10:44:40;;;;;;;2.83;1.92;;;;;;;;;;1745895;82;21532;-68
2022/07/31 10:47:20;;;;;;;4.33;2.27;;;;;;;;;;1747355;81;21079;-66
2022/07/31 10:50:03;;;;;;;;;;;;;;;;;;1673178;84;21036;-67
2022/07/31 10:52:40;;;;;;;3.00;2.10;;;;;;;;;;1725169;82;20160;-67
2022/07/31 10:55:21;;;;;;;2.95;1.77;;;;;;;;;;1739312;81;21108;-69
2022/07/31 10:57:51;;;;;;;3.83;2.30;;;;;;;;;;1738163;82;21055;-68
2022/07/31 11:00:25;;;;;;;6.65;3.20;;;;;;;;;;1738517;80;21099;-67
2022/07/31 11:03:12;;;;;;;5.25;2.77;;;;;;;;;;1721848;80;21111;-71
2022/07/31 11:05:42;;;;;;;2.92;2.00;;;;;;;;;;1736852;81;21084;-72
2022/07/31 11:08:10;;;;;;;5.08;2.40;;;;;;;;;;1737364;81;21060;-72
2022/07/31 11:10:51;;;;;;;3.47;2.20;;;;;;;;;;1738211;81;21085;-70
2022/07/31 11:13:46;;;;;;;7.53;3.65;;;;;;;;;;1741351;82;21052;-69
2022/07/31 11:16:14;;;;;;;6.70;3.27;;;;;;;;;;1739604;82;21029;-69
2022/07/31 11:19:05;;;;;;;6.03;2.30;;;;;;;;;;1746257;82;21103;-69
2022/07/31 11:21:35;;;;;;;6.90;2.60;;;;;;;;;;1747369;81;21060;-69
2022/07/31 11:24:01;;;;;;;3.67;2.20;;;;;;;;;;1747755;81;21103;-70
2022/07/31 11:26:27;;;;;;;7.25;2.20;;;;;;;;;;1747727;82;21085;-69
2022/07/31 11:28:53;;;;;;;4.37;2.08;;;;;;;;;;1747755;81;21497;-69
2022/07/31 11:31:19;;;;;;;3.08;2.35;;;;;;;;;;1747422;82;21089;-69
2022/07/31 11:33:45;;;;;;;4.25;2.02;;;;;;;;;;1755813;80;21053;-69
2022/07/31 11:36:13;;;;;;;3.08;2.15;;;;;;;;;;1738795;82;21062;-70
2022/07/31 11:38:40;;;;;;;2.98;2.00;;;;;;;;;;1737983;82;21092;-70
2022/07/31 11:41:06;;;;;;;3.72;2.20;;;;;;;;;;1708783;82;21095;-70
2022/07/31 11:43:33;;;;;;;4.08;2.15;;;;;;;;;;1705725;84;21071;-69
2022/07/31 11:45:59;;;;;;;3.55;2.08;;;;;;;;;;1668175;86;21072;-69
2022/07/31 11:48:26;;;;;;;8.78;2.80;;;;;;;;;;1739051;82;21078;-69
2022/07/31 11:50:52;;;;;;;4.25;2.10;;;;;;;;;;1747069;82;21564;-69
2022/07/31 11:53:18;;;;;;;5.00;2.40;;;;;;;;;;1747590;81;21075;-70
2022/07/31 11:55:45;;;;;;;4.12;2.25;;;;;;;;;;1747815;82;21065;-70
2022/07/31 11:58:13;;;;;;;2.77;1.92;;;;;;;;;;1745374;82;21080;-68
2022/07/31 12:00:41;;;;;;;5.92;2.02;;;;;;;;;;1739280;82;21072;-69
2022/07/31 12:03:07;;;;;;;5.22;2.42;;;;;;;;;;1737996;82;21091;-69
2022/07/31 12:05:35;;;;;;;6.05;2.30;;;;;;;;;;1754148;81;21039;-69
2022/07/31 12:08:02;;;;;;;3.70;2.17;;;;;;;;;;1759888;81;21070;-70
2022/07/31 12:10:28;;;;;;;3.90;2.30;;;;;;;;;;1760796;81;21051;-68
2022/07/31 12:12:55;;;;;;;11.63;3.15;;;;;;;;;;1761037;81;21068;-68
2022/07/31 12:15:21;;;;;;;6.92;3.17;;;;;;;;;;1761044;81;21084;-68
2022/07/31 12:17:49;;;;;;;4.40;3.10;;;;;;;;;;1760790;81;21606;-69
2022/07/31 12:20:15;;;;;;;5.30;3.22;;;;;;;;;;1760219;81;21045;-69
2022/07/31 12:22:41;;;;;;;3.92;3.00;;;;;;;;;;1760934;81;21072;-68
2022/07/31 12:25:11;;;;;;;3.35;2.87;;;;;;;;;;1761376;81;21065;-69
2022/07/31 12:27:36;;;;;;;4.85;3.30;;;;;;;;;;1756743;81;21071;-71
2022/07/31 12:30:14;;;;;;;6.15;2.95;;;;;;;;;;1757421;81;21033;-70
2022/07/31 12:32:40;;;;;;;2.98;2.22;;;;;;;;;;1758219;81;21001;-68
2022/07/31 12:35:06;;;;;;;4.22;2.95;;;;;;;;;;1760991;81;21095;-69
2022/07/31 12:37:43;;;;;;;3.45;2.10;;;;;;;;;;1761298;81;21604;-68
2022/07/31 12:40:12;;;;;;;2.80;2.17;;;;;;;;;;1761230;81;21021;-68
2022/07/31 12:42:38;;;;;;;3.70;2.58;;;;;;;;;;1760208;81;21029;-68
2022/07/31 12:45:05;;;;;;;5.03;2.52;;;;;;;;;;1761247;81;21072;-68
2022/07/31 12:47:32;;;;;;;6.42;2.67;;;;;;;;;;1761117;81;21520;-68
2022/07/31 12:49:59;;;;;;;10.90;3.05;;;;;;;;;;1761344;81;21068;-68
2022/07/31 12:52:29;;;;;;;53.05;7.42;;;;;;;;;;1758292;81;21035;-70
2022/07/31 12:54:56;;;;;;;5.08;2.87;;;;;;;;;;1758195;81;21060;-68
2022/07/31 12:57:22;;;;;;;4.05;2.40;;;;;;;;;;1754908;81;21102;-68
2022/07/31 12:59:48;;;;;;;3.33;2.27;;;;;;;;;;1749135;81;21107;-68
2022/07/31 13:02:16;;;;;;;4.78;2.40;;;;;;;;;;1760444;81;21591;-69
2022/07/31 13:04:42;;;;;;;13.93;2.90;;;;;;;;;;1754867;81;21093;-69
2022/07/31 13:07:08;;;;;;;5.22;2.98;;;;;;;;;;1730913;83;21060;-69
2022/07/31 13:09:34;;;;;;;3.75;2.35;;;;;;;;;;1742957;81;21021;-69
2022/07/31 13:12:00;;;;;;;2.98;2.65;;;;;;;;;;1776946;80;21037;-68
2022/07/31 13:14:27;;;;;;;4.05;2.55;;;;;;;;;;1792226;80;21061;-68
2022/07/31 13:16:53;;;;;;;4.37;2.50;;;;;;;;;;1779595;80;21543;-68
2022/07/31 13:19:20;;;;;;;5.33;2.72;;;;;;;;;;1760969;81;21044;-68
2022/07/31 13:21:47;;;;;;;3.83;2.55;;;;;;;;;;1760989;81;21099;-68
2022/07/31 13:24:14;;;;;;;6.10;2.75;;;;;;;;;;1761238;81;21052;-69
2022/07/31 13:26:40;;;;;;;5.00;2.77;;;;;;;;;;1758838;81;21032;-69
2022/07/31 13:29:06;;;;;;;5.90;2.40;;;;;;;;;;1757234;81;20979;-69
2022/07/31 13:31:33;;;;;;;13.18;3.00;;;;;;;;;;1757208;81;21001;-69
2022/07/31 13:33:59;;;;;;;3.12;2.22;;;;;;;;;;1761073;81;21009;-69
2022/07/31 13:36:25;;;;;;;2.98;2.40;;;;;;;;;;1761240;81;21053;-69
2022/07/31 13:38:52;;;;;;;8.45;4.80;;;;;;;;;;1761018;81;21064;-69
2022/07/31 13:41:29;;;;;;;5.60;2.80;;;;;;;;;;1761177;81;21552;-70
2022/07/31 13:43:53;;;;;;;3.72;2.50;;;;;;;;;;1760614;81;21104;-70
2022/07/31 13:46:20;;;;;;;4.28;3.00;;;;;;;;;;1758396;81;21029;-70
2022/07/31 13:48:46;;;;;;;3.45;2.30;;;;;;;;;;1755355;82;21028;-68
2022/07/31 13:51:13;;;;;;;10.48;3.17;;;;;;;;;;1779272;80;21039;-68
2022/07/31 13:53:39;;;;;;;8.20;3.02;;;;;;;;;;1760333;80;20999;-69
2022/07/31 13:56:05;;;;;;;3.55;2.62;;;;;;;;;;1756929;81;21091;-69
2022/07/31 13:58:31;;;;;;;6.15;2.70;;;;;;;;;;1768574;80;21071;-68
2022/07/31 14:00:58;;;;;;;7.10;2.85;;;;;;;;;;1781921;80;21079;-69
2022/07/31 14:03:24;;;;;;;3.15;2.60;;;;;;;;;;1770823;80;21134;-69
2022/07/31 14:05:51;;;;;;;4.72;2.80;;;;;;;;;;1757882;80;21078;-69
2022/07/31 14:08:18;;;;;;;5.37;2.58;;;;;;;;;;1783901;80;21043;-69
2022/07/31 14:10:44;;;;;;;3.12;2.22;;;;;;;;;;1774379;80;21200;-67
2022/07/31 14:13:12;;;;;;;4.80;2.60;;;;;;;;;;1775215;80;21027;-68
2022/07/31 14:15:38;;;;;;;8.70;3.30;;;;;;;;;;1785392;80;21016;-68
2022/07/31 14:18:04;;;;;;;5.12;2.92;;;;;;;;;;1791973;80;21043;-68
2022/07/31 14:20:35;;;;;;;12.20;3.95;;;;;;;;;;1776915;80;21060;-68
2022/07/31 14:22:59;;;;;;;7.37;3.65;;;;;;;;;;1760083;81;21068;-69
2022/07/31 14:25:25;;;;;;;4.90;2.80;;;;;;;;;;1736285;80;21005;-68
2022/07/31 14:27:52;;;;;;;5.20;2.77;;;;;;;;;;1749104;80;21099;-68
2022/07/31 14:30:19;;;;;;;3.47;2.47;;;;;;;;;;1779545;80;21028;-68
2022/07/31 14:32:46;;;;;;;3.62;2.40;;;;;;;;;;1764548;80;21052;-69
2022/07/31 14:35:12;;;;;;;3.80;2.50;;;;;;;;;;1780773;80;21185;-69
2022/07/31 14:37:40;;;;;;;4.03;2.75;;;;;;;;;;1776839;80;22026;-69
2022/07/31 14:40:07;;;;;;;6.40;2.62;;;;;;;;;;1792071;80;21017;-69
2022/07/31 14:42:33;;;;;;;3.98;2.52;;;;;;;;;;1787569;80;21145;-68
2022/07/31 14:45:01;;;;;;;3.37;2.55;;;;;;;;;;1785143;80;20997;-69
2022/07/31 14:47:29;;;;;;;4.37;2.60;;;;;;;;;;1760776;81;21094;-70
2022/07/31 14:49:55;;;;;;;4.67;2.58;;;;;;;;;;1715580;82;21093;-69
2022/07/31 14:52:21;;;;;;;4.65;2.58;;;;;;;;;;1719356;83;21093;-69
2022/07/31 14:54:47;;;;;;;4.37;2.50;;;;;;;;;;1715137;82;21074;-69